Time;durP1;ratioP1;P1;durP2;ratioP2;P2;SDS_P1;SDS_P2;PMS_P1;PMS_P2;Temp;Humidity;BMP_temperature;BMP_pressure;BME280_temperature;BME280_humidity;BME280_pressure;Samples;Min_cycle;Max_cycle;Signal;HPM_P1;HPM_P2
2022/01/13 00:06:26;;;;;;;8.38;4.88;;;11.80;57.80;;;;;;20650216;28;20034;-74
2022/01/13 00:16:38;;;;;;;12.25;6.45;;;11.80;57.80;;;;;;20649515;28;20050;-74
2022/01/13 00:26:39;;;;;;;11.93;7.05;;;11.80;57.80;;;;;;20618395;28;20032;-74
2022/01/13 00:36:39;;;;;;;13.45;6.05;;;11.70;57.70;;;;;;20632128;28;20396;-73
2022/01/13 00:46:43;;;;;;;12.95;6.20;;;11.70;57.70;;;;;;20616000;28;20093;-73
2022/01/13 00:56:43;;;;;;;9.38;5.53;;;11.70;57.70;;;;;;20648773;28;20053;-74
2022/01/13 01:06:44;;;;;;;11.55;6.20;;;11.70;57.70;;;;;;20646641;28;20027;-76
2022/01/13 01:16:45;;;;;;;9.10;6.15;;;11.70;57.70;;;;;;20650562;28;20042;-73
2022/01/13 01:26:50;;;;;;;10.45;6.32;;;11.70;57.60;;;;;;20629327;28;20473;-76
2022/01/13 01:36:52;;;;;;;12.90;6.78;;;11.60;57.60;;;;;;20630514;28;20468;-73
2022/01/13 01:46:52;;;;;;;15.43;6.93;;;11.60;57.60;;;;;;20613685;28;20035;-73
2022/01/13 01:56:53;;;;;;;11.77;5.82;;;11.60;57.60;;;;;;20629182;28;20042;-74
2022/01/13 02:06:55;;;;;;;13.10;6.15;;;11.60;57.60;;;;;;20628841;28;20104;-73
2022/01/13 02:17:02;;;;;;;13.90;6.85;;;11.60;57.60;;;;;;20639681;28;20485;-74
2022/01/13 02:27:04;;;;;;;12.55;7.15;;;11.60;57.60;;;;;;20659171;28;20061;-73
2022/01/13 02:37:04;;;;;;;13.35;6.90;;;11.60;57.60;;;;;;20641287;28;20108;-72
2022/01/13 02:47:20;;;;;;;11.15;6.13;;;11.60;57.70;;;;;;20641490;28;20042;-73
2022/01/13 02:57:21;;;;;;;13.68;6.93;;;11.60;57.70;;;;;;20639889;28;20477;-74
2022/01/13 03:07:21;;;;;;;11.43;6.28;;;11.60;57.70;;;;;;20639243;28;20041;-73
2022/01/13 03:17:22;;;;;;;13.02;6.72;;;11.60;57.80;;;;;;20638559;28;20129;-73
2022/01/13 03:27:23;;;;;;;12.88;6.95;;;11.60;57.80;;;;;;20635201;28;20113;-74
2022/01/13 03:37:24;;;;;;;14.00;6.63;;;11.60;57.90;;;;;;20734278;28;20377;-73
2022/01/13 03:47:24;;;;;;;11.82;5.95;;;11.50;57.80;;;;;;20717111;28;20156;-73
2022/01/13 03:58:01;;;;;;;13.80;6.68;;;11.50;57.90;;;;;;20699952;28;20041;-73
2022/01/13 04:08:02;;;;;;;12.93;6.82;;;11.50;57.90;;;;;;20732350;28;20088;-75
2022/01/13 04:18:02;;;;;;;13.02;6.55;;;11.60;58.00;;;;;;20730979;28;20033;-74
2022/01/13 04:28:04;;;;;;;12.52;6.72;;;11.50;58.00;;;;;;20714414;28;20061;-74
2022/01/13 04:38:05;;;;;;;12.80;7.50;;;11.50;58.10;;;;;;20712896;28;20539;-74
2022/01/13 04:48:05;;;;;;;12.40;6.13;;;11.50;58.10;;;;;;20696741;28;20319;-73
2022/01/13 04:58:06;;;;;;;16.10;8.10;;;11.50;58.10;;;;;;20711912;28;20296;-73
2022/01/13 05:08:07;;;;;;;16.83;7.18;;;11.50;58.20;;;;;;20728343;28;20487;-74
2022/01/13 05:28:12;;;;;;;16.42;8.18;;;12.60;55.80;;;;;;20634025;28;20281;-78
2022/01/13 05:38:13;;;;;;;13.63;8.02;;;13.60;53.50;;;;;;20647186;28;20062;-74
2022/01/13 05:48:14;;;;;;;14.23;7.38;;;14.60;51.40;;;;;;20649937;28;20120;-73
2022/01/13 05:58:15;;;;;;;12.80;7.88;;;15.10;49.90;;;;;;20648364;28;20050;-78
2022/01/13 06:08:15;;;;;;;15.85;7.63;;;15.30;49.30;;;;;;20580940;28;20039;-76
2022/01/13 06:18:16;;;;;;;15.57;7.93;;;15.30;49.00;;;;;;20566557;28;20392;-75
2022/01/13 06:28:17;;;;;;;12.55;6.43;;;15.20;48.80;;;;;;20654213;28;20588;-75
2022/01/13 06:38:18;;;;;;;11.48;6.97;;;14.80;49.30;;;;;;20714602;28;20136;-74
2022/01/13 06:48:18;;;;;;;13.05;5.75;;;14.10;50.70;;;;;;20560405;28;20090;-76
2022/01/13 06:58:19;;;;;;;15.43;7.23;;;13.40;52.20;;;;;;20623964;28;20096;-75
2022/01/13 07:08:19;;;;;;;11.65;6.57;;;12.80;53.50;;;;;;20637157;28;20347;-74
2022/01/13 07:18:20;;;;;;;16.27;7.60;;;12.40;54.70;;;;;;20644027;28;20038;-73
2022/01/13 07:28:20;;;;;;;14.52;6.88;;;12.00;55.60;;;;;;20634269;28;20038;-73
2022/01/13 07:38:21;;;;;;;15.05;7.63;;;11.90;56.30;;;;;;20634366;28;20129;-74
2022/01/13 07:48:22;;;;;;;15.13;7.20;;;11.80;56.80;;;;;;20618390;28;20101;-74
2022/01/13 07:58:22;;;;;;;12.10;7.70;;;11.70;57.10;;;;;;20638804;28;20379;-74
2022/01/13 08:08:23;;;;;;;13.57;6.43;;;11.70;57.30;;;;;;20715021;28;20531;-73
2022/01/13 08:28:42;;;;;;;13.23;6.30;;;11.70;57.60;;;;;;20680634;28;20096;-72
2022/01/13 08:38:43;;;;;;;13.83;7.30;;;11.70;57.70;;;;;;20623893;28;20109;-74
2022/01/13 08:48:44;;;;;;;13.83;6.17;;;11.70;57.80;;;;;;20624435;28;20292;-75
2022/01/13 08:58:46;;;;;;;17.88;6.78;;;11.70;58.00;;;;;;20641101;28;20320;-74
2022/01/13 09:08:47;;;;;;;17.10;6.88;;;11.70;58.10;;;;;;20625850;28;20393;-73
2022/01/13 09:18:58;;;;;;;12.52;7.35;;;11.60;58.20;;;;;;20626300;28;20034;-74
2022/01/13 09:28:59;;;;;;;13.05;5.93;;;11.60;58.30;;;;;;20656792;28;20030;-74
2022/01/13 09:39:01;;;;;;;15.30;6.70;;;11.60;58.40;;;;;;20573051;28;20046;-73
2022/01/13 09:49:03;;;;;;;15.45;7.63;;;11.50;58.40;;;;;;20634841;28;20376;-79
2022/01/13 09:59:05;;;;;;;14.35;6.70;;;11.60;58.50;;;;;;20681926;28;20377;-75
2022/01/13 10:09:05;;;;;;;17.92;7.25;;;11.50;58.50;;;;;;20572311;28;20129;-74
2022/01/13 10:19:07;;;;;;;19.25;8.52;;;11.60;58.60;;;;;;20613973;28;20129;-75
2022/01/13 10:29:09;;;;;;;16.30;6.20;;;11.50;58.60;;;;;;20638383;28;20045;-75
2022/01/13 10:39:11;;;;;;;16.90;7.40;;;11.50;58.70;;;;;;20656773;28;20145;-77
2022/01/13 10:49:13;;;;;;;18.90;7.60;;;11.50;58.70;;;;;;20658060;28;20077;-79
2022/01/13 10:59:13;;;;;;;11.70;7.00;;;11.50;58.80;;;;;;20647997;28;20401;-80
2022/01/13 11:09:16;;;;;;;14.05;6.90;;;11.50;58.90;;;;;;20639189;28;20038;-77
2022/01/13 11:19:17;;;;;;;12.73;6.82;;;11.80;58.50;;;;;;20673556;28;20046;-75
2022/01/13 11:29:18;;;;;;;18.65;8.35;;;12.80;56.50;;;;;;20731386;28;20042;-74
2022/01/13 11:39:18;;;;;;;13.48;7.40;;;13.60;54.50;;;;;;21031343;23;20125;-71
2022/01/13 11:49:23;;;;;;;15.15;8.85;;;14.40;52.70;;;;;;20631850;28;20040;-72
2022/01/13 11:59:23;;;;;;;19.13;8.35;;;15.00;51.00;;;;;;20670886;28;20038;-76
2022/01/13 12:09:37;;;;;;;21.80;9.25;;;15.20;50.00;;;;;;20723902;28;20092;-76
2022/01/13 12:19:45;;;;;;;17.88;7.60;;;15.30;49.60;;;;;;20748205;28;20038;-77
2022/01/13 12:29:50;;;;;;;18.63;8.38;;;15.30;49.40;;;;;;20645980;28;20065;-74
2022/01/13 12:39:52;;;;;;;19.73;9.35;;;14.90;49.90;;;;;;20627872;28;20053;-74
2022/01/13 12:49:53;;;;;;;18.30;8.82;;;14.20;51.30;;;;;;20645537;28;20078;-74
2022/01/13 12:59:55;;;;;;;22.50;9.43;;;13.50;53.40;;;;;;20673723;28;20034;-74
2022/01/13 13:10:04;;;;;;;19.35;8.85;;;12.90;54.00;;;;;;20681949;28;20093;-74
2022/01/13 13:20:05;;;;;;;18.60;9.63;;;12.50;55.90;;;;;;20629934;28;20039;-74
2022/01/13 13:30:06;;;;;;;26.00;9.38;;;12.20;56.20;;;;;;20629404;28;20034;-73
2022/01/13 13:40:07;;;;;;;23.48;10.02;;;12.00;56.80;;;;;;20741821;28;20042;-75
2022/01/13 13:50:08;;;;;;;16.00;8.15;;;12.00;57.90;;;;;;20692429;28;20049;-78
2022/01/13 14:00:09;;;;;;;22.67;9.60;;;12.00;57.50;;;;;;20643839;28;20038;-77
2022/01/13 14:10:22;;;;;;;21.48;8.45;;;12.00;57.70;;;;;;20666425;28;20122;-77
2022/01/13 14:20:26;;;;;;;21.83;8.98;;;12.00;57.70;;;;;;20657787;28;20050;-77
2022/01/13 14:30:42;;;;;;;22.23;8.05;;;12.00;57.80;;;;;;20681601;28;20460;-78
2022/01/13 14:40:47;;;;;;;20.42;8.82;;;12.00;58.00;;;;;;20708238;28;20483;-79
2022/01/13 14:50:48;;;;;;;15.32;7.93;;;11.90;58.00;;;;;;20683947;28;20070;-78
2022/01/13 15:00:51;;;;;;;16.02;8.07;;;11.90;58.10;;;;;;20709556;28;20702;-80
2022/01/13 15:10:52;;;;;;;20.00;8.73;;;11.90;58.20;;;;;;20734098;28;20046;-79
2022/01/13 15:20:58;;;;;;;18.50;8.48;;;11.90;58.30;;;;;;20734252;28;20042;-79
2022/01/13 15:30:59;;;;;;;19.00;8.65;;;11.80;58.40;;;;;;20651922;28;20542;-79
2022/01/13 15:40:59;;;;;;;18.83;7.80;;;11.80;58.60;;;;;;20652055;28;20046;-75
2022/01/13 15:51:00;;;;;;;14.48;6.57;;;12.20;57.90;;;;;;20634875;28;20061;-75
2022/01/13 16:01:01;;;;;;;16.00;7.38;;;13.20;55.90;;;;;;20650869;28;20046;-76
2022/01/13 16:11:08;;;;;;;14.95;7.18;;;14.00;53.80;;;;;;20615955;28;20125;-74
2022/01/13 16:21:09;;;;;;;14.88;7.00;;;14.70;52.00;;;;;;20634948;28;20038;-81
2022/01/13 16:31:09;;;;;;;14.15;6.05;;;15.00;50.80;;;;;;20634598;28;20045;-78
2022/01/13 16:41:10;;;;;;;13.65;6.30;;;15.10;50.20;;;;;;20651916;28;20046;-79
2022/01/13 16:51:11;;;;;;;14.40;7.03;;;15.00;50.30;;;;;;20650153;28;20054;-79
2022/01/13 17:01:11;;;;;;;10.50;5.72;;;14.20;51.60;;;;;;20634924;28;20152;-79
2022/01/13 17:11:14;;;;;;;12.88;6.03;;;13.50;53.10;;;;;;20620228;28;20385;-80
2022/01/13 17:21:14;;;;;;;13.57;6.60;;;12.90;54.30;;;;;;20671782;28;20101;-80
2022/01/13 17:31:15;;;;;;;15.27;7.10;;;12.50;55.50;;;;;;20648581;28;20030;-80
2022/01/13 17:41:16;;;;;;;15.60;6.90;;;12.10;56.40;;;;;;20632220;28;20294;-80
2022/01/13 17:51:16;;;;;;;14.13;6.87;;;11.90;57.20;;;;;;20662589;28;20292;-81
2022/01/13 18:01:17;;;;;;;16.63;7.00;;;11.70;57.70;;;;;;20593277;28;20389;-77
2022/01/13 18:11:17;;;;;;;15.23;7.13;;;11.60;58.10;;;;;;20562882;28;20026;-74
2022/01/13 18:21:18;;;;;;;14.05;6.38;;;11.60;58.40;;;;;;20656625;28;20026;-77
2022/01/13 18:31:18;;;;;;;13.23;6.03;;;11.60;58.50;;;;;;20674777;28;20045;-73
2022/01/13 18:41:27;;;;;;;13.70;6.13;;;11.60;58.50;;;;;;20639973;28;20038;-74
2022/01/13 18:51:29;;;;;;;13.98;6.30;;;11.70;58.60;;;;;;20631690;28;20038;-77
2022/01/13 19:01:31;;;;;;;16.15;6.55;;;11.70;58.60;;;;;;20622956;28;20038;-79
2022/01/13 19:11:32;;;;;;;12.35;6.50;;;11.70;58.60;;;;;;20639219;28;20061;-78
2022/01/13 19:21:33;;;;;;;12.85;5.80;;;11.70;58.60;;;;;;20606733;28;20030;-78
2022/01/13 19:31:33;;;;;;;12.65;6.22;;;11.70;58.70;;;;;;20613124;28;20117;-78
2022/01/13 19:41:34;;;;;;;12.00;6.20;;;11.70;58.70;;;;;;20608319;28;20100;-78
2022/01/13 19:51:35;;;;;;;11.30;5.73;;;11.70;58.80;;;;;;20616587;28;20034;-79
2022/01/13 20:01:38;;;;;;;12.90;6.63;;;11.70;58.80;;;;;;20608067;28;20321;-79
2022/01/13 20:11:42;;;;;;;15.10;6.35;;;11.70;58.90;;;;;;20627400;28;20062;-79
2022/01/13 20:21:43;;;;;;;11.65;6.10;;;11.70;58.90;;;;;;20610824;28;20172;-79
2022/01/13 20:31:44;;;;;;;11.13;5.37;;;11.70;59.00;;;;;;20709945;28;20481;-77
2022/01/13 20:41:44;;;;;;;17.10;6.82;;;11.60;59.00;;;;;;20711225;28;20313;-79
2022/01/13 20:51:45;;;;;;;12.18;6.35;;;11.60;59.00;;;;;;20611469;28;20045;-79
2022/01/13 21:01:49;;;;;;;13.75;7.18;;;11.60;59.00;;;;;;20633215;28;20117;-79
2022/01/13 21:11:49;;;;;;;13.13;5.53;;;11.60;59.10;;;;;;20571391;28;20031;-78
2022/01/13 21:21:50;;;;;;;15.32;6.57;;;11.60;59.10;;;;;;20651615;28;20396;-78
2022/01/13 21:31:52;;;;;;;14.30;7.60;;;11.50;59.20;;;;;;20679832;28;20042;-79
2022/01/13 21:41:55;;;;;;;12.20;6.25;;;11.60;59.30;;;;;;20605134;28;20305;-80
2022/01/13 21:51:57;;;;;;;13.35;6.93;;;11.60;59.40;;;;;;20637869;28;20499;-79
2022/01/13 22:01:57;;;;;;;15.23;7.45;;;11.50;59.40;;;;;;20642590;28;20042;-81
2022/01/13 22:11:58;;;;;;;9.70;5.85;;;11.50;59.40;;;;;;20625832;28;20158;-80
2022/01/13 22:22:05;;;;;;;13.68;7.40;;;11.50;60.10;;;;;;20673367;28;20038;-79
2022/01/13 22:32:06;;;;;;;16.88;8.13;;;11.50;60.20;;;;;;20625291;28;20034;-79
2022/01/13 22:42:07;;;;;;;16.67;8.60;;;11.50;59.60;;;;;;20623877;28;20481;-81
2022/01/13 22:52:09;;;;;;;12.85;6.20;;;11.50;59.70;;;;;;20607484;28;20042;-79
2022/01/13 23:02:09;;;;;;;18.23;8.30;;;11.50;59.80;;;;;;20622879;28;20378;-79
2022/01/13 23:12:14;;;;;;;14.43;8.20;;;11.50;59.80;;;;;;20605930;28;20030;-79
2022/01/13 23:22:16;;;;;;;16.90;8.00;;;11.50;59.90;;;;;;20652537;28;20045;-79
2022/01/13 23:32:16;;;;;;;16.60;8.63;;;11.50;60.00;;;;;;20621253;28;20034;-79
2022/01/13 23:42:20;;;;;;;17.27;8.13;;;11.50;60.00;;;;;;20621317;28;20077;-78
2022/01/13 23:52:25;;;;;;;14.95;7.90;;;11.40;60.10;;;;;;20620878;28;20061;-79
